createdAt,value
2023-03-02T00:04:46.640Z,79.06
2023-03-02T00:10:48.965Z,77.88
2023-03-02T00:16:54.260Z,77.88
2023-03-02T00:23:00.887Z,77.47
2023-03-02T00:29:04.368Z,78.40
2023-03-02T00:35:11.825Z,78.85
2023-03-02T00:41:15.304Z,79.53
2023-03-02T00:47:20.114Z,77.79
2023-03-02T00:53:22.259Z,76.77
2023-03-02T00:59:27.707Z,77.69
2023-03-02T01:05:33.160Z,76.82
2023-03-02T01:11:35.648Z,76.87
2023-03-02T01:17:45.160Z,77.00
2023-03-02T01:23:47.574Z,75.94
2023-03-02T01:29:52.098Z,75.53
2023-03-02T01:35:58.423Z,80.34
2023-03-02T01:42:03.554Z,80.53
2023-03-02T01:48:05.549Z,80.86
2023-03-02T01:54:23.211Z,79.14
2023-03-02T02:00:32.773Z,77.13
2023-03-02T02:06:45.059Z,76.79
2023-03-02T02:12:49.352Z,76.66
2023-03-02T02:18:56.009Z,76.44
2023-03-02T02:25:05.490Z,78.98
2023-03-02T02:31:58.268Z,78.83
2023-03-02T02:38:06.608Z,77.33
2023-03-02T02:44:17.092Z,77.14
2023-03-02T02:50:24.590Z,77.74
2023-03-02T02:56:42.081Z,80.59
2023-03-02T03:02:49.586Z,78.31
2023-03-02T03:09:05.086Z,77.53
2023-03-02T03:15:12.532Z,77.30
2023-03-02T03:21:15.019Z,77.30
2023-03-02T03:27:17.474Z,77.92
2023-03-02T03:33:19.958Z,80.40
2023-03-02T03:39:22.446Z,78.56
2023-03-02T03:45:24.932Z,77.62
2023-03-02T03:51:28.398Z,76.22
2023-03-02T03:57:38.342Z,76.83
2023-03-02T04:03:41.309Z,76.17
2023-03-02T04:09:49.004Z,76.00
2023-03-02T04:15:56.988Z,76.26
2023-03-02T04:22:02.768Z,75.66
2023-03-02T04:28:14.288Z,75.19
2023-03-02T04:34:28.264Z,76.52
2023-03-02T04:40:34.241Z,74.80
2023-03-02T04:46:36.822Z,74.65
2023-03-02T04:52:40.156Z,75.53
2023-03-02T04:58:51.891Z,75.23
2023-03-02T05:04:57.327Z,74.82
2023-03-02T05:11:14.360Z,74.84
2023-03-02T05:17:18.151Z,74.19
2023-03-02T05:23:36.427Z,75.20
2023-03-02T05:29:39.185Z,74.87
2023-03-02T05:35:51.711Z,74.82
2023-03-02T05:41:54.119Z,75.23
2023-03-02T05:48:06.680Z,74.72
2023-03-02T05:54:15.753Z,74.70
2023-03-02T06:00:19.606Z,74.82
2023-03-02T06:06:34.383Z,74.58
2023-03-02T06:12:41.814Z,74.66
2023-03-02T06:18:48.046Z,74.34
2023-03-02T06:25:02.008Z,73.57
2023-03-02T06:31:05.055Z,73.22
2023-03-02T06:37:16.584Z,72.80
2023-03-02T06:43:20.884Z,72.83
2023-03-02T06:49:23.542Z,71.75
2023-03-02T06:55:29.003Z,71.77
2023-03-02T07:01:36.717Z,70.62
2023-03-02T07:07:39.998Z,70.05
2023-03-02T07:13:48.230Z,70.54
2023-03-02T07:19:56.488Z,69.72
2023-03-02T07:26:04.926Z,70.31
2023-03-02T07:32:12.446Z,69.25
2023-03-02T07:38:15.375Z,69.78
2023-03-02T07:44:17.819Z,68.91
2023-03-02T07:50:22.657Z,69.11
2023-03-02T07:56:25.756Z,66.45
2023-03-02T08:02:32.243Z,68.75
2023-03-02T08:08:37.705Z,66.81
2023-03-02T08:14:43.352Z,67.45
2023-03-02T08:20:45.642Z,67.20
2023-03-02T08:26:48.100Z,66.67
2023-03-02T08:32:50.656Z,65.58
2023-03-02T08:38:53.043Z,66.54
2023-03-02T08:44:55.542Z,65.80
2023-03-02T08:51:15.012Z,67.42
2023-03-02T08:57:18.258Z,66.64
2023-03-02T09:03:21.970Z,67.43
2023-03-02T09:09:24.421Z,68.16
2023-03-02T09:15:26.278Z,66.71
2023-03-02T09:21:29.497Z,65.02
2023-03-02T09:27:31.820Z,64.26
2023-03-02T09:33:36.288Z,64.47
2023-03-02T09:39:39.841Z,65.88
2023-03-02T09:46:13.120Z,65.20
2023-03-02T09:52:30.921Z,63.99
2023-03-02T09:58:38.351Z,60.77
2023-03-02T10:04:50.918Z,61.12
2023-03-02T10:11:13.161Z,61.77
2023-03-02T10:17:34.953Z,62.05
2023-03-02T10:23:47.440Z,58.90
2023-03-02T10:30:06.987Z,57.83
2023-03-02T10:36:40.554Z,61.86
2023-03-02T10:42:42.973Z,58.74
2023-03-02T10:48:58.494Z,54.72
2023-03-02T10:55:14.092Z,57.74
2023-03-02T11:01:20.467Z,56.99
2023-03-02T11:07:24.939Z,57.77
2023-03-02T11:13:31.439Z,56.06
2023-03-02T11:19:39.917Z,58.02
2023-03-02T11:25:49.404Z,54.60
2023-03-02T11:32:39.111Z,58.51
2023-03-02T11:40:08.046Z,56.15
2023-03-02T11:45:47.322Z,55.21
2023-03-02T11:52:02.860Z,57.13
2023-03-02T11:58:47.742Z,58.91
2023-03-02T12:04:49.842Z,58.36
2023-03-02T12:11:03.510Z,57.72
2023-03-02T12:17:28.914Z,55.48
2023-03-02T12:23:33.425Z,56.65
2023-03-02T12:29:45.861Z,55.89
2023-03-02T12:36:00.386Z,55.57
2023-03-02T12:42:34.051Z,54.33
2023-03-02T12:48:57.600Z,54.93
2023-03-02T12:55:21.078Z,50.94
2023-03-02T13:01:41.772Z,51.50
2023-03-02T13:08:32.350Z,51.99
2023-03-02T13:14:35.715Z,52.79
2023-03-02T13:20:39.203Z,53.55
2023-03-02T13:26:41.066Z,54.55
2023-03-02T13:32:45.469Z,53.33
2023-03-02T13:38:59.017Z,52.25
2023-03-02T13:45:29.209Z,53.36
2023-03-02T13:51:40.662Z,52.20
2023-03-02T13:57:48.158Z,52.35
2023-03-02T14:03:50.641Z,52.58
2023-03-02T14:09:56.518Z,52.67
2023-03-02T14:15:59.584Z,52.93
2023-03-02T14:22:02.971Z,53.43
2023-03-02T14:28:07.441Z,52.51
2023-03-02T14:34:16.938Z,53.31
2023-03-02T14:40:29.588Z,50.74
2023-03-02T14:46:36.096Z,53.37
2023-03-02T14:53:11.321Z,54.81
2023-03-02T14:59:24.032Z,55.33
2023-03-02T15:05:29.548Z,55.44
2023-03-02T15:11:32.684Z,54.06
2023-03-02T15:17:38.519Z,54.31
2023-03-02T15:23:40.954Z,55.00
2023-03-02T15:29:48.451Z,54.91
2023-03-02T15:35:55.644Z,53.98
2023-03-02T15:41:58.381Z,54.50
2023-03-02T15:48:00.826Z,54.68
2023-03-02T15:54:15.608Z,54.35
2023-03-02T16:00:30.629Z,56.21
2023-03-02T16:06:34.983Z,55.38
2023-03-02T16:12:37.771Z,55.99
2023-03-02T16:18:40.234Z,58.61
2023-03-02T16:24:51.011Z,56.58
2023-03-02T16:31:06.876Z,57.48
2023-03-02T16:37:09.782Z,59.97
2023-03-02T16:43:13.137Z,62.67
2023-03-02T16:49:20.628Z,59.50
2023-03-02T16:55:27.342Z,58.99
2023-03-02T17:01:30.565Z,58.91
2023-03-02T17:07:40.275Z,59.85
2023-03-02T17:13:42.471Z,64.35
2023-03-02T17:19:46.944Z,60.65
2023-03-02T17:25:50.678Z,61.15
2023-03-02T17:31:53.951Z,66.76
2023-03-02T17:38:04.363Z,61.99
2023-03-02T17:44:19.763Z,61.58
2023-03-02T17:57:00.648Z,62.51
2023-03-02T18:03:33.161Z,66.20
2023-03-02T18:09:44.935Z,65.58
2023-03-02T18:16:12.871Z,67.42
2023-03-02T18:22:30.826Z,66.30
2023-03-02T18:28:35.904Z,65.64
2023-03-02T18:34:42.895Z,65.30
2023-03-02T18:40:52.156Z,65.99
2023-03-02T18:47:05.911Z,66.00
2023-03-02T18:54:00.771Z,65.83
2023-03-02T19:00:31.645Z,70.74
2023-03-02T19:06:50.225Z,69.78
2023-03-02T19:13:10.229Z,67.42
2023-03-02T19:25:44.124Z,66.94
2023-03-02T19:31:54.165Z,68.99
2023-03-02T19:38:14.220Z,69.65
2023-03-02T19:44:32.269Z,69.06
2023-03-02T19:50:44.309Z,68.10
2023-03-02T19:57:01.531Z,68.19
2023-03-02T20:03:29.324Z,69.49
2023-03-02T20:16:02.870Z,73.29
2023-03-02T20:22:21.796Z,69.72
2023-03-02T20:28:53.277Z,68.71
2023-03-02T20:35:02.683Z,74.99
2023-03-02T20:41:33.031Z,74.87
2023-03-02T20:48:01.161Z,74.16
2023-03-02T20:54:12.777Z,71.30
2023-03-02T21:00:22.015Z,70.51
2023-03-02T21:06:30.240Z,75.05
2023-03-02T21:12:35.448Z,71.41
2023-03-02T21:19:03.193Z,71.74
2023-03-02T21:25:13.977Z,74.02
2023-03-02T21:32:03.387Z,72.20
2023-03-02T21:38:07.713Z,71.67
2023-03-02T21:50:51.965Z,70.81
2023-03-02T21:57:04.315Z,71.88
2023-03-02T22:03:31.509Z,72.19
2023-03-02T22:09:43.549Z,71.59
2023-03-02T22:16:21.110Z,72.06
2023-03-02T22:22:40.911Z,70.86
2023-03-02T22:35:43.881Z,75.53
2023-03-02T22:48:23.037Z,73.03
2023-03-02T22:54:45.785Z,72.79
2023-03-02T23:01:11.605Z,71.92
2023-03-02T23:13:52.489Z,71.81
2023-03-02T23:19:54.465Z,71.94
2023-03-02T23:26:13.158Z,76.42
2023-03-02T23:32:43.752Z,74.42
2023-03-02T23:38:53.034Z,71.91
2023-03-02T23:45:02.335Z,72.00
2023-03-02T23:51:35.597Z,72.19
2023-03-02T23:57:33.708Z,72.43
